DLH1SJ LSZH-KSJC
Flight info
| Callsign | DLH1SJ |
|---|---|
| Flight time | N/A |
| Altitude | 31000 |
| Route | VEBIT T51 LASUN T14 LUMEL DCT RIGVI DCT DVR/N0476F340 L10 LAM UN57 TNT UL28 RODOL UP6 KOLID UL70 GUNTU Z196 DIGMA M146 LUSOD DCT AMLAD DCT KESIX DCT SUNOT/M083F340 DCT 58N020W 60N030W 62N040W 62N050W/M083F360 DCT PIDSO DCT MUSLO/N0485F360 DCT RODBO DCT 5930N070W 5730N080W 5430N090W/N0486F380 DCT AMENU DCT GGW DCT KU75K DCT FMG DCT CHBLI BRIXX4 |
| Aircraft | A346/H-SDE2E3FGHIJ3J4J5M1RWXY/LB1D1 |
Departure
| Time | 2026-05-08 03:56 |
|---|---|
| Airport | Zürich Airport (LSZH) |
Arrival
| Time | N/A |
|---|---|
| Airport | Norman Y. Mineta San Jose International Airport (KSJC) |
| Time | Latitude | Longitude | Altitude | Speed | Heading |
|---|---|---|---|---|---|
| 2026-05-08 03:31 | 47.46200 | 8.55097 | 1408 ft | 0 kts | 155° |
| 2026-05-08 03:43 | 47.46201 | 8.55097 | 1401 ft | 1 kts | 155° |
| 2026-05-08 03:44 | 47.46223 | 8.55082 | 1410 ft | 4 kts | 157° |
| 2026-05-08 03:44 | 47.46247 | 8.55068 | 1410 ft | 4 kts | 160° |
| 2026-05-08 03:44 | 47.46269 | 8.55052 | 1409 ft | 4 kts | 140° |
| 2026-05-08 03:44 | 47.46284 | 8.55025 | 1409 ft | 4 kts | 115° |
| 2026-05-08 03:45 | 47.46292 | 8.54989 | 1408 ft | 4 kts | 98° |
| 2026-05-08 03:45 | 47.46295 | 8.54954 | 1406 ft | 4 kts | 96° |
| 2026-05-08 03:45 | 47.46298 | 8.54913 | 1408 ft | 4 kts | 95° |
| 2026-05-08 03:45 | 47.46300 | 8.54874 | 1407 ft | 4 kts | 95° |
| 2026-05-08 03:46 | 47.46302 | 8.54844 | 1407 ft | 4 kts | 90° |
| 2026-05-08 03:46 | 47.46298 | 8.54810 | 1406 ft | 4 kts | 65° |
| 2026-05-08 03:46 | 47.46287 | 8.54789 | 1406 ft | 4 kts | 28° |
| 2026-05-08 03:46 | 47.46268 | 8.54782 | 1406 ft | 4 kts | 355° |
| 2026-05-08 03:47 | 47.46242 | 8.54791 | 1407 ft | 4 kts | 340° |
| 2026-05-08 03:47 | 47.46222 | 8.54803 | 1407 ft | 0 kts | 334° |
| 2026-05-08 03:50 | 47.46226 | 8.54800 | 1407 ft | 2 kts | 334° |
| 2026-05-08 03:50 | 47.46274 | 8.54766 | 1406 ft | 14 kts | 334° |
| 2026-05-08 03:50 | 47.46369 | 8.54699 | 1403 ft | 16 kts | 334° |
| 2026-05-08 03:51 | 47.46465 | 8.54631 | 1401 ft | 15 kts | 334° |
| 2026-05-08 03:51 | 47.46555 | 8.54569 | 1407 ft | 14 kts | 336° |
| 2026-05-08 03:51 | 47.46646 | 8.54509 | 1404 ft | 15 kts | 336° |
| 2026-05-08 03:51 | 47.46748 | 8.54443 | 1401 ft | 17 kts | 340° |
| 2026-05-08 03:52 | 47.46860 | 8.54377 | 1387 ft | 18 kts | 334° |
| 2026-05-08 03:52 | 47.46968 | 8.54302 | 1401 ft | 17 kts | 335° |
| 2026-05-08 03:52 | 47.47070 | 8.54232 | 1397 ft | 16 kts | 335° |
| 2026-05-08 03:52 | 47.47168 | 8.54164 | 1403 ft | 15 kts | 335° |
| 2026-05-08 03:53 | 47.47263 | 8.54100 | 1405 ft | 15 kts | 335° |
| 2026-05-08 03:53 | 47.47354 | 8.54037 | 1406 ft | 14 kts | 335° |
| 2026-05-08 03:53 | 47.47440 | 8.53977 | 1408 ft | 13 kts | 335° |
| 2026-05-08 03:53 | 47.47519 | 8.53923 | 1409 ft | 12 kts | 335° |
| 2026-05-08 03:54 | 47.47592 | 8.53872 | 1413 ft | 13 kts | 335° |
| 2026-05-08 03:54 | 47.47671 | 8.53816 | 1414 ft | 12 kts | 330° |
| 2026-05-08 03:54 | 47.47690 | 8.53710 | 1415 ft | 12 kts | 242° |
| 2026-05-08 03:54 | 47.47618 | 8.53643 | 1413 ft | 14 kts | 199° |
| 2026-05-08 03:55 | 47.47519 | 8.53630 | 1411 ft | 16 kts | 157° |
| 2026-05-08 03:55 | 47.47490 | 8.53650 | 1406 ft | 11 kts | 154° |
| 2026-05-08 03:55 | 47.47207 | 8.53846 | 1404 ft | 82 kts | 155° |
| 2026-05-08 03:55 | 47.46477 | 8.54348 | 1398 ft | 147 kts | 155° |
| 2026-05-08 03:56 | 47.45386 | 8.55100 | 1440 ft | 194 kts | 155° |
| 2026-05-08 03:56 | 47.44145 | 8.55908 | 2142 ft | 193 kts | 157° |
| 2026-05-08 03:56 | 47.42957 | 8.56765 | 3042 ft | 188 kts | 141° |
| 2026-05-08 03:56 | 47.42180 | 8.58238 | 3763 ft | 181 kts | 107° |
| 2026-05-08 03:57 | 47.42273 | 8.60073 | 4124 ft | 191 kts | 57° |
| 2026-05-08 03:57 | 47.43283 | 8.61433 | 4419 ft | 207 kts | 28° |
| 2026-05-08 03:57 | 47.44716 | 8.62005 | 4711 ft | 225 kts | 360° |
| 2026-05-08 03:57 | 47.46257 | 8.61360 | 5014 ft | 242 kts | 322° |
| 2026-05-08 03:58 | 47.47289 | 8.59344 | 5338 ft | 257 kts | 285° |
| 2026-05-08 03:58 | 47.47344 | 8.56657 | 5712 ft | 271 kts | 255° |
| 2026-05-08 03:58 | 47.46720 | 8.54001 | 6378 ft | 275 kts | 245° |
| 2026-05-08 03:58 | 47.45776 | 8.51542 | 7156 ft | 274 kts | 238° |
| 2026-05-08 03:59 | 47.44748 | 8.49168 | 7961 ft | 274 kts | 238° |
| 2026-05-08 03:59 | 47.43734 | 8.46755 | 8746 ft | 274 kts | 239° |
| 2026-05-08 03:59 | 47.42755 | 8.44330 | 9482 ft | 275 kts | 240° |
| 2026-05-08 03:59 | 47.41790 | 8.41876 | 9912 ft | 275 kts | 240° |
| 2026-05-08 04:00 | 47.40827 | 8.39393 | 10370 ft | 281 kts | 241° |
| 2026-05-08 04:00 | 47.39837 | 8.36829 | 10734 ft | 294 kts | 241° |
| 2026-05-08 04:00 | 47.38800 | 8.34126 | 11014 ft | 310 kts | 242° |
| 2026-05-08 04:00 | 47.37761 | 8.31248 | 11303 ft | 326 kts | 243° |
| 2026-05-08 04:01 | 47.36691 | 8.28206 | 11587 ft | 341 kts | 243° |
| 2026-05-08 04:01 | 47.35569 | 8.25032 | 11866 ft | 356 kts | 243° |
| 2026-05-08 04:01 | 47.34400 | 8.21733 | 12266 ft | 367 kts | 242° |
| 2026-05-08 04:01 | 47.33206 | 8.18373 | 12882 ft | 372 kts | 242° |
| 2026-05-08 04:02 | 47.31996 | 8.14973 | 13544 ft | 376 kts | 242° |
| 2026-05-08 04:02 | 47.30773 | 8.11537 | 14114 ft | 381 kts | 243° |
| 2026-05-08 04:02 | 47.29536 | 8.08055 | 14666 ft | 385 kts | 242° |
| 2026-05-08 04:02 | 47.28327 | 8.04517 | 15266 ft | 387 kts | 248° |
| 2026-05-08 04:03 | 47.27763 | 8.00632 | 15801 ft | 391 kts | 268° |
| 2026-05-08 04:03 | 47.29216 | 7.92941 | 17028 ft | 397 kts | 294° |
| 2026-05-08 04:03 | 47.30399 | 7.89245 | 17604 ft | 400 kts | 294° |
| 2026-05-08 04:04 | 47.31572 | 7.85561 | 18002 ft | 403 kts | 294° |
| 2026-05-08 04:04 | 47.32758 | 7.81797 | 18061 ft | 404 kts | 294° |
| 2026-05-08 04:04 | 47.33930 | 7.78038 | 18059 ft | 402 kts | 294° |
| 2026-05-08 04:04 | 47.35095 | 7.74282 | 18061 ft | 402 kts | 294° |
| 2026-05-08 04:05 | 47.36257 | 7.70525 | 18064 ft | 402 kts | 294° |
| 2026-05-08 04:05 | 47.37417 | 7.66764 | 18058 ft | 402 kts | 294° |
| 2026-05-08 04:05 | 47.38576 | 7.63006 | 18065 ft | 402 kts | 294° |
| 2026-05-08 04:05 | 47.39732 | 7.59249 | 18067 ft | 402 kts | 293° |
| 2026-05-08 04:06 | 47.40680 | 7.55364 | 18068 ft | 401 kts | 284° |
| 2026-05-08 04:06 | 47.41211 | 7.51314 | 18070 ft | 401 kts | 276° |
| 2026-05-08 04:06 | 47.41335 | 7.47207 | 18046 ft | 401 kts | 269° |
| 2026-05-08 04:06 | 47.41274 | 7.43089 | 18046 ft | 401 kts | 268° |
| 2026-05-08 04:07 | 47.41185 | 7.38965 | 18057 ft | 401 kts | 268° |
| 2026-05-08 04:07 | 47.41100 | 7.34851 | 18053 ft | 401 kts | 268° |
| 2026-05-08 04:07 | 47.41229 | 7.30739 | 18014 ft | 401 kts | 281° |
| 2026-05-08 04:07 | 47.42159 | 7.26854 | 18035 ft | 403 kts | 297° |
| 2026-05-08 04:08 | 47.43831 | 7.23524 | 18049 ft | 406 kts | 314° |
| 2026-05-08 04:08 | 47.46106 | 7.21040 | 18051 ft | 410 kts | 331° |
| 2026-05-08 04:08 | 47.48800 | 7.19643 | 18052 ft | 413 kts | 348° |
| 2026-05-08 04:08 | 47.51678 | 7.19494 | 18049 ft | 417 kts | 6° |
| 2026-05-08 04:09 | 47.54480 | 7.20641 | 18053 ft | 420 kts | 23° |
| 2026-05-08 04:09 | 47.57096 | 7.22588 | 18062 ft | 421 kts | 24° |
| 2026-05-08 04:09 | 47.59810 | 7.24176 | 18062 ft | 419 kts | 18° |
| 2026-05-08 04:09 | 47.62554 | 7.25627 | 18047 ft | 418 kts | 17° |
| 2026-05-08 04:10 | 47.65305 | 7.27030 | 18048 ft | 418 kts | 17° |
| 2026-05-08 04:10 | 47.68061 | 7.28401 | 18049 ft | 418 kts | 17° |
| 2026-05-08 04:10 | 47.70821 | 7.29754 | 18051 ft | 418 kts | 16° |
| 2026-05-08 04:10 | 47.73585 | 7.31099 | 18051 ft | 418 kts | 16° |
| 2026-05-08 04:11 | 47.76351 | 7.32441 | 18050 ft | 418 kts | 16° |
| 2026-05-08 04:11 | 47.79115 | 7.33781 | 18055 ft | 418 kts | 16° |
| 2026-05-08 04:11 | 47.81878 | 7.35121 | 18058 ft | 418 kts | 16° |
| 2026-05-08 04:11 | 47.84640 | 7.36459 | 18061 ft | 417 kts | 16° |
| 2026-05-08 04:12 | 47.87403 | 7.37799 | 18064 ft | 417 kts | 16° |
| 2026-05-08 04:12 | 47.90164 | 7.39139 | 18066 ft | 417 kts | 16° |
| 2026-05-08 04:12 | 47.92925 | 7.40481 | 18070 ft | 417 kts | 16° |
| 2026-05-08 04:12 | 47.95698 | 7.41830 | 18125 ft | 422 kts | 16° |
| 2026-05-08 04:13 | 47.98509 | 7.43199 | 18600 ft | 425 kts | 16° |
| 2026-05-08 04:13 | 48.01306 | 7.44565 | 19229 ft | 425 kts | 16° |
| 2026-05-08 04:13 | 48.04085 | 7.45922 | 19734 ft | 427 kts | 16° |
| 2026-05-08 04:13 | 48.06962 | 7.47325 | 20212 ft | 431 kts | 15° |
| 2026-05-08 04:14 | 48.09869 | 7.48127 | 20603 ft | 431 kts | 358° |
| 2026-05-08 04:14 | 48.12815 | 7.47526 | 21068 ft | 428 kts | 340° |
| 2026-05-08 04:14 | 48.15482 | 7.45629 | 21559 ft | 425 kts | 323° |
| 2026-05-08 04:14 | 48.17653 | 7.42638 | 22010 ft | 424 kts | 308° |
| 2026-05-08 04:15 | 48.19554 | 7.39173 | 22526 ft | 426 kts | 307° |
| 2026-05-08 04:15 | 48.21407 | 7.35751 | 22984 ft | 429 kts | 307° |
| 2026-05-08 04:15 | 48.23296 | 7.32266 | 23472 ft | 432 kts | 307° |
| 2026-05-08 04:15 | 48.25204 | 7.28757 | 23890 ft | 434 kts | 307° |
| 2026-05-08 04:16 | 48.27122 | 7.25235 | 24236 ft | 438 kts | 307° |
| 2026-05-08 04:16 | 48.29069 | 7.21662 | 24598 ft | 441 kts | 307° |
| 2026-05-08 04:16 | 48.31020 | 7.18081 | 24979 ft | 444 kts | 307° |
| 2026-05-08 04:16 | 48.32980 | 7.14483 | 25368 ft | 446 kts | 307° |
| 2026-05-08 04:17 | 48.34950 | 7.10862 | 25739 ft | 448 kts | 307° |
| 2026-05-08 04:17 | 48.36928 | 7.07223 | 26131 ft | 450 kts | 307° |
| 2026-05-08 04:17 | 48.38918 | 7.03558 | 26494 ft | 453 kts | 307° |
| 2026-05-08 04:17 | 48.40916 | 6.99873 | 26851 ft | 455 kts | 307° |
| 2026-05-08 04:18 | 48.42922 | 6.96170 | 27219 ft | 457 kts | 307° |
| 2026-05-08 04:18 | 48.44937 | 6.92443 | 27585 ft | 459 kts | 307° |
| 2026-05-08 04:18 | 48.46959 | 6.88697 | 27943 ft | 461 kts | 306° |
| 2026-05-08 04:18 | 48.48993 | 6.84927 | 28268 ft | 465 kts | 306° |
| 2026-05-08 04:19 | 48.51036 | 6.81133 | 28645 ft | 466 kts | 306° |
| 2026-05-08 04:19 | 48.53073 | 6.77347 | 29174 ft | 464 kts | 306° |
| 2026-05-08 04:19 | 48.55105 | 6.73566 | 29739 ft | 462 kts | 306° |
| 2026-05-08 04:19 | 48.57125 | 6.69802 | 30236 ft | 461 kts | 306° |
| 2026-05-08 04:20 | 48.59143 | 6.66034 | 30621 ft | 460 kts | 306° |
| 2026-05-08 04:20 | 48.61159 | 6.62263 | 30935 ft | 461 kts | 306° |
| 2026-05-08 04:20 | 48.63181 | 6.58473 | 31057 ft | 463 kts | 306° |
| 2026-05-08 04:20 | 48.65205 | 6.54677 | 31062 ft | 464 kts | 306° |
| 2026-05-08 04:21 | 48.69256 | 6.47065 | 31072 ft | 465 kts | 306° |
| 2026-05-08 04:21 | 48.73316 | 6.39412 | 31075 ft | 465 kts | 306° |
| 2026-05-08 04:22 | 48.77366 | 6.31757 | 31076 ft | 465 kts | 306° |
| 2026-05-08 04:22 | 48.81411 | 6.24090 | 31074 ft | 465 kts | 306° |
| 2026-05-08 04:23 | 48.85426 | 6.16457 | 31075 ft | 465 kts | 306° |
| 2026-05-08 04:23 | 48.89491 | 6.08709 | 31077 ft | 466 kts | 306° |
| 2026-05-08 04:24 | 48.93506 | 6.01029 | 31082 ft | 467 kts | 306° |
| 2026-05-08 04:24 | 48.97540 | 5.93293 | 31073 ft | 466 kts | 306° |
| 2026-05-08 04:25 | 49.01568 | 5.85550 | 31068 ft | 466 kts | 306° |
| 2026-05-08 04:25 | 49.05592 | 5.77791 | 31065 ft | 466 kts | 306° |
| 2026-05-08 04:26 | 49.08961 | 5.71276 | 31067 ft | 467 kts | 305° |
| 2026-05-08 04:26 | 49.12982 | 5.63480 | 31064 ft | 467 kts | 305° |
| 2026-05-08 04:27 | 49.17002 | 5.55661 | 31064 ft | 467 kts | 305° |
| 2026-05-08 04:27 | 49.21008 | 5.47844 | 31063 ft | 466 kts | 305° |
| 2026-05-08 04:28 | 49.24981 | 5.40073 | 31057 ft | 466 kts | 305° |
| 2026-05-08 04:28 | 49.28975 | 5.32237 | 31071 ft | 466 kts | 305° |
| 2026-05-08 04:29 | 49.32968 | 5.24382 | 31063 ft | 467 kts | 305° |
| 2026-05-08 04:29 | 49.36960 | 5.16503 | 31061 ft | 467 kts | 305° |
| 2026-05-08 04:30 | 49.40943 | 5.08619 | 31059 ft | 467 kts | 305° |
| 2026-05-08 04:30 | 49.44916 | 5.00730 | 31067 ft | 466 kts | 305° |
| 2026-05-08 04:31 | 49.48882 | 4.92832 | 31062 ft | 466 kts | 305° |
| 2026-05-08 04:31 | 49.52851 | 4.84908 | 31069 ft | 468 kts | 304° |
| 2026-05-08 04:32 | 49.56819 | 4.76958 | 31064 ft | 468 kts | 304° |
| 2026-05-08 04:32 | 49.60783 | 4.68994 | 31066 ft | 468 kts | 304° |
| 2026-05-08 04:33 | 49.64713 | 4.61075 | 31063 ft | 468 kts | 304° |
| 2026-05-08 04:33 | 49.68659 | 4.53097 | 31065 ft | 466 kts | 304° |
| 2026-05-08 04:34 | 49.72601 | 4.45108 | 31066 ft | 468 kts | 304° |
| 2026-05-08 04:34 | 49.76549 | 4.37079 | 31064 ft | 469 kts | 304° |
| 2026-05-08 04:35 | 49.80489 | 4.29043 | 31068 ft | 469 kts | 304° |
| 2026-05-08 04:35 | 49.84427 | 4.20985 | 31068 ft | 469 kts | 304° |
| 2026-05-08 04:36 | 49.88358 | 4.12920 | 31067 ft | 468 kts | 304° |
| 2026-05-08 04:36 | 49.92282 | 4.04841 | 31071 ft | 468 kts | 304° |
| 2026-05-08 04:37 | 49.96197 | 3.96758 | 31066 ft | 468 kts | 304° |
| 2026-05-08 04:37 | 50.00106 | 3.88662 | 31067 ft | 468 kts | 304° |
| 2026-05-08 04:38 | 50.04009 | 3.80555 | 31066 ft | 468 kts | 304° |
| 2026-05-08 04:38 | 50.07909 | 3.72428 | 31066 ft | 468 kts | 304° |
| 2026-05-08 04:39 | 50.11801 | 3.64292 | 31075 ft | 468 kts | 304° |
| 2026-05-08 04:39 | 50.15697 | 3.56119 | 31063 ft | 469 kts | 304° |
| 2026-05-08 04:40 | 50.19583 | 3.47949 | 31067 ft | 468 kts | 304° |
| 2026-05-08 04:40 | 50.23460 | 3.39770 | 31065 ft | 468 kts | 304° |
| 2026-05-08 04:41 | 50.27330 | 3.31581 | 31068 ft | 468 kts | 304° |
| 2026-05-08 04:41 | 50.31169 | 3.23432 | 31070 ft | 468 kts | 304° |
| 2026-05-08 04:42 | 50.35037 | 3.15192 | 31073 ft | 470 kts | 304° |
| 2026-05-08 04:42 | 50.38905 | 3.06930 | 31078 ft | 469 kts | 304° |
| 2026-05-08 04:43 | 50.42754 | 2.98683 | 31075 ft | 468 kts | 303° |
| 2026-05-08 04:43 | 50.46602 | 2.90411 | 31073 ft | 468 kts | 303° |
| 2026-05-08 04:44 | 50.50440 | 2.82134 | 31073 ft | 468 kts | 303° |
| 2026-05-08 04:44 | 50.54276 | 2.73836 | 31077 ft | 469 kts | 303° |
| 2026-05-08 04:45 | 50.58111 | 2.65513 | 31074 ft | 470 kts | 303° |
| 2026-05-08 04:45 | 50.61944 | 2.57168 | 31073 ft | 470 kts | 303° |
| 2026-05-08 04:46 | 50.65763 | 2.48829 | 31079 ft | 468 kts | 303° |
| 2026-05-08 04:46 | 50.69565 | 2.40497 | 31078 ft | 468 kts | 303° |
| 2026-05-08 04:47 | 50.73364 | 2.32146 | 31085 ft | 468 kts | 303° |
| 2026-05-08 04:47 | 50.77163 | 2.23768 | 31077 ft | 469 kts | 303° |
| 2026-05-08 04:48 | 50.80959 | 2.15371 | 31074 ft | 469 kts | 303° |
| 2026-05-08 04:48 | 50.84747 | 2.06965 | 31075 ft | 469 kts | 303° |
| 2026-05-08 04:49 | 50.88528 | 1.98548 | 31074 ft | 468 kts | 303° |
| 2026-05-08 04:49 | 50.92295 | 1.90132 | 31074 ft | 468 kts | 303° |
| 2026-05-08 04:50 | 50.96061 | 1.81690 | 31071 ft | 469 kts | 303° |
| 2026-05-08 04:50 | 50.99833 | 1.73210 | 31069 ft | 470 kts | 303° |
| 2026-05-08 04:51 | 51.03599 | 1.64717 | 31068 ft | 470 kts | 303° |
| 2026-05-08 04:51 | 51.07357 | 1.56210 | 31071 ft | 470 kts | 302° |
| 2026-05-08 04:52 | 51.11108 | 1.47691 | 31070 ft | 470 kts | 302° |
| 2026-05-08 04:52 | 51.14855 | 1.39152 | 31073 ft | 470 kts | 302° |
| 2026-05-08 04:53 | 51.18502 | 1.30598 | 31074 ft | 469 kts | 300° |
| 2026-05-08 04:53 | 51.22047 | 1.21841 | 31072 ft | 469 kts | 300° |
| 2026-05-08 04:54 | 51.25591 | 1.13081 | 31071 ft | 469 kts | 300° |
| 2026-05-08 04:54 | 51.29141 | 1.04319 | 31072 ft | 469 kts | 300° |
| 2026-05-08 04:55 | 51.32687 | 0.95556 | 31072 ft | 469 kts | 300° |
| 2026-05-08 04:55 | 51.36226 | 0.86778 | 31074 ft | 469 kts | 300° |
| 2026-05-08 04:56 | 51.39758 | 0.77979 | 31073 ft | 469 kts | 300° |
| 2026-05-08 04:56 | 51.43281 | 0.69170 | 31079 ft | 469 kts | 300° |
| 2026-05-08 04:57 | 51.46797 | 0.60349 | 31072 ft | 469 kts | 300° |
| 2026-05-08 04:57 | 51.50308 | 0.51511 | 31074 ft | 469 kts | 300° |
| 2026-05-08 04:58 | 51.53812 | 0.42658 | 31083 ft | 470 kts | 300° |
| 2026-05-08 04:58 | 51.57316 | 0.33773 | 31076 ft | 470 kts | 300° |
| 2026-05-08 04:59 | 51.60814 | 0.24873 | 31078 ft | 469 kts | 300° |
| 2026-05-08 04:59 | 51.64561 | 0.16228 | 31075 ft | 471 kts | 305° |
| 2026-05-08 05:00 | 51.68855 | 0.08208 | 31075 ft | 474 kts | 311° |
| 2026-05-08 05:00 | 51.73461 | 0.00598 | 31094 ft | 474 kts | 312° |
| 2026-05-08 05:01 | 51.78093 | -0.07000 | 31079 ft | 475 kts | 312° |
| 2026-05-08 05:01 | 51.82721 | -0.14633 | 31080 ft | 474 kts | 312° |
| 2026-05-08 05:02 | 51.87367 | -0.22333 | 31654 ft | 475 kts | 312° |
| 2026-05-08 05:02 | 51.89663 | -0.26146 | 32250 ft | 470 kts | 311° |
| 2026-05-08 05:02 | 51.91939 | -0.29933 | 32779 ft | 467 kts | 311° |
| 2026-05-08 05:03 | 51.94200 | -0.33702 | 33229 ft | 466 kts | 311° |